createdAt,value
2023-12-15T00:02:30.903Z,14.50
2023-12-15T00:05:03.063Z,15.30
2023-12-15T00:07:35.483Z,15.30
2023-12-15T00:10:09.213Z,14.40
2023-12-15T00:12:41.240Z,12.80
2023-12-15T00:15:14.151Z,15.50
2023-12-15T00:17:46.448Z,16.20
2023-12-15T00:20:22.575Z,16.20
2023-12-15T00:22:56.275Z,15.80
2023-12-15T00:25:28.450Z,11.80
2023-12-15T00:28:01.595Z,15.90
2023-12-15T00:30:33.889Z,14.40
2023-12-15T00:33:06.040Z,13.70
2023-12-15T00:35:38.111Z,15.40
2023-12-15T00:38:09.962Z,16.10
2023-12-15T00:40:43.384Z,16.40
2023-12-15T00:43:15.705Z,17.90
2023-12-15T00:45:47.926Z,17.00
2023-12-15T00:48:20.316Z,16.10
2023-12-15T00:50:52.540Z,15.60
2023-12-15T00:53:24.479Z,15.90
2023-12-15T00:55:56.697Z,15.50
2023-12-15T00:58:28.816Z,16.80
2023-12-15T01:01:00.933Z,16.10
2023-12-15T01:03:35.052Z,16.40
2023-12-15T01:06:07.800Z,14.30
2023-12-15T01:08:39.966Z,13.20
2023-12-15T01:11:12.016Z,15.30
2023-12-15T01:13:44.693Z,15.10
2023-12-15T01:16:16.993Z,14.90
2023-12-15T01:18:49.092Z,14.50
2023-12-15T01:21:21.178Z,13.90
2023-12-15T01:24:00.458Z,14.30
2023-12-15T01:26:34.392Z,15.50
2023-12-15T01:29:06.805Z,14.10
2023-12-15T01:31:38.910Z,14.50
2023-12-15T01:34:11.103Z,13.80
2023-12-15T01:36:43.908Z,14.00
2023-12-15T01:39:15.776Z,12.90
2023-12-15T01:41:47.757Z,14.10
2023-12-15T01:44:19.690Z,13.70
2023-12-15T01:46:52.716Z,14.10
2023-12-15T01:49:24.933Z,14.80
2023-12-15T01:51:57.355Z,15.90
2023-12-15T01:54:29.590Z,14.70
2023-12-15T01:57:01.546Z,15.20
2023-12-15T01:59:45.480Z,14.00
2023-12-15T02:02:17.817Z,15.10
2023-12-15T02:04:51.395Z,15.40
2023-12-15T02:07:23.612Z,15.20
2023-12-15T02:09:55.968Z,16.40
2023-12-15T02:12:28.393Z,15.60
2023-12-15T02:15:00.714Z,17.00
2023-12-15T02:17:32.769Z,16.90
2023-12-15T02:20:04.807Z,16.80
2023-12-15T02:22:36.696Z,16.10
2023-12-15T02:25:09.573Z,18.00
2023-12-15T02:27:42.643Z,18.50
2023-12-15T02:30:14.770Z,17.70
2023-12-15T02:32:46.885Z,17.90
2023-12-15T02:35:20.748Z,19.20
2023-12-15T02:40:23.153Z,17.40
2023-12-15T02:42:55.276Z,18.10
2023-12-15T02:45:27.731Z,19.20
2023-12-15T02:47:59.981Z,16.30
2023-12-15T02:50:32.217Z,18.20
2023-12-15T02:53:04.486Z,16.70
2023-12-15T02:55:36.556Z,17.30
2023-12-15T02:58:08.983Z,17.60
2023-12-15T03:00:41.106Z,16.10
2023-12-15T03:03:13.247Z,18.10
2023-12-15T03:05:45.562Z,16.10
2023-12-15T03:08:17.829Z,16.90
2023-12-15T03:10:49.967Z,15.20
2023-12-15T03:13:22.070Z,12.90
2023-12-15T03:15:54.111Z,14.80
2023-12-15T03:18:26.156Z,14.60
2023-12-15T03:20:58.221Z,13.10
2023-12-15T03:23:31.964Z,15.20
2023-12-15T03:26:04.233Z,14.30
2023-12-15T03:28:36.578Z,13.70
2023-12-15T03:31:09.315Z,14.10
2023-12-15T03:33:41.328Z,13.80
2023-12-15T03:36:13.796Z,12.80
2023-12-15T03:38:46.001Z,14.20
2023-12-15T03:41:18.283Z,13.80
2023-12-15T03:43:52.327Z,13.70
2023-12-15T03:46:24.306Z,13.60
2023-12-15T03:48:56.454Z,14.20
2023-12-15T03:51:28.411Z,13.50
2023-12-15T03:54:01.074Z,13.40
2023-12-15T03:56:33.272Z,13.40
2023-12-15T03:59:05.304Z,14.10
2023-12-15T04:01:37.446Z,14.40
2023-12-15T04:04:09.584Z,12.90
2023-12-15T04:06:41.737Z,13.40
2023-12-15T04:09:14.283Z,14.20
2023-12-15T04:11:47.860Z,14.40
2023-12-15T04:14:20.818Z,13.30
2023-12-15T04:16:52.772Z,14.00
2023-12-15T04:19:24.967Z,14.50
2023-12-15T04:21:57.211Z,14.50
2023-12-15T04:24:29.288Z,14.50
2023-12-15T04:27:01.547Z,15.20
2023-12-15T04:29:34.055Z,13.60
2023-12-15T04:32:06.505Z,13.40
2023-12-15T04:34:38.976Z,14.50
2023-12-15T04:37:13.218Z,13.60
2023-12-15T04:39:48.188Z,14.10
2023-12-15T04:42:20.039Z,13.40
2023-12-15T04:44:51.950Z,14.50
2023-12-15T04:47:23.861Z,14.20
2023-12-15T04:49:56.274Z,14.40
2023-12-15T04:52:28.249Z,13.50
2023-12-15T04:55:00.405Z,14.40
2023-12-15T04:57:32.444Z,14.50
2023-12-15T05:00:05.535Z,13.70
2023-12-15T05:02:37.664Z,14.30
2023-12-15T05:05:10.690Z,13.30
2023-12-15T05:07:43.200Z,12.70
2023-12-15T05:10:15.170Z,12.90
2023-12-15T05:12:47.359Z,14.20
2023-12-15T05:15:19.393Z,13.40
2023-12-15T05:17:52.605Z,13.10
2023-12-15T05:20:24.955Z,13.80
2023-12-15T05:22:57.642Z,14.30
2023-12-15T05:25:29.832Z,12.80
2023-12-15T05:28:02.396Z,13.60
2023-12-15T05:30:34.428Z,13.40
2023-12-15T05:33:07.835Z,13.50
2023-12-15T05:35:40.448Z,13.20
2023-12-15T05:38:12.555Z,13.70
2023-12-15T05:40:44.746Z,15.30
2023-12-15T05:43:17.537Z,13.30
2023-12-15T05:45:51.275Z,12.90
2023-12-15T05:48:24.079Z,13.10
2023-12-15T05:50:56.085Z,14.00
2023-12-15T05:53:28.121Z,13.30
2023-12-15T05:56:00.982Z,12.70
2023-12-15T05:58:33.416Z,13.40
2023-12-15T06:01:05.727Z,13.50
2023-12-15T06:03:37.967Z,13.10
2023-12-15T06:06:14.545Z,13.70
2023-12-15T06:08:46.855Z,13.90
2023-12-15T06:11:19.216Z,14.00
2023-12-15T06:13:51.356Z,13.40
2023-12-15T06:16:24.590Z,14.80
2023-12-15T06:18:56.783Z,14.50
2023-12-15T06:21:29.636Z,14.30
2023-12-15T06:24:01.492Z,11.70
2023-12-15T06:26:33.646Z,13.80
2023-12-15T06:29:06.160Z,13.60
2023-12-15T06:31:38.487Z,13.10
2023-12-15T06:34:10.592Z,13.80
2023-12-15T06:36:43.653Z,13.70
2023-12-15T06:39:16.678Z,13.90
2023-12-15T06:41:49.405Z,13.90
2023-12-15T06:44:21.903Z,14.10
2023-12-15T06:46:53.887Z,13.40
2023-12-15T06:49:32.148Z,13.50
2023-12-15T06:52:05.250Z,14.20
2023-12-15T06:54:40.137Z,13.10
2023-12-15T06:57:12.512Z,13.60
2023-12-15T06:59:44.687Z,13.40
2023-12-15T07:02:16.691Z,13.40
2023-12-15T07:04:52.145Z,13.60
2023-12-15T07:07:24.325Z,14.30
2023-12-15T07:09:56.656Z,13.60
2023-12-15T07:12:28.607Z,14.20
2023-12-15T07:15:00.893Z,14.10
2023-12-15T07:17:32.980Z,14.00
2023-12-15T07:20:05.705Z,13.70
2023-12-15T07:22:37.735Z,13.50
2023-12-15T07:25:10.931Z,13.60
2023-12-15T07:27:43.561Z,13.50
2023-12-15T07:30:16.702Z,12.70
2023-12-15T07:32:49.085Z,12.50
2023-12-15T07:35:29.493Z,12.60
2023-12-15T07:38:04.848Z,11.00
2023-12-15T07:40:37.151Z,12.20
2023-12-15T07:43:09.511Z,11.30
2023-12-15T07:45:41.699Z,12.60
2023-12-15T07:48:14.925Z,10.50
2023-12-15T07:50:49.819Z,11.00
2023-12-15T07:53:22.546Z,8.40
2023-12-15T07:55:55.531Z,10.20
2023-12-15T07:58:28.036Z,11.50
2023-12-15T08:01:00.712Z,11.00
2023-12-15T08:03:33.027Z,10.00
2023-12-15T08:06:06.159Z,10.80
2023-12-15T08:08:40.567Z,9.40
2023-12-15T08:11:13.212Z,9.20
2023-12-15T08:13:45.568Z,9.70
2023-12-15T08:16:17.747Z,9.50
2023-12-15T08:18:49.836Z,9.80
2023-12-15T08:21:21.845Z,10.50
2023-12-15T08:26:55.304Z,9.70
2023-12-15T08:29:28.116Z,10.50
2023-12-15T08:32:00.275Z,9.80
2023-12-15T08:34:33.633Z,10.80
2023-12-15T08:37:06.169Z,10.30
2023-12-15T08:39:38.299Z,10.60
2023-12-15T08:42:10.498Z,11.00
2023-12-15T08:44:45.588Z,11.60
2023-12-15T08:47:17.886Z,10.70
2023-12-15T08:49:50.175Z,10.90
2023-12-15T08:52:22.459Z,10.90
2023-12-15T08:54:54.599Z,11.60
2023-12-15T08:57:27.278Z,12.60
2023-12-15T09:00:00.387Z,12.50
2023-12-15T09:02:33.195Z,11.90
2023-12-15T09:05:13.955Z,12.80
2023-12-15T09:07:57.545Z,13.30
2023-12-15T09:10:34.994Z,12.50
2023-12-15T09:13:08.344Z,11.60
2023-12-15T09:15:40.660Z,13.20
2023-12-15T09:18:13.508Z,13.60
2023-12-15T09:20:46.812Z,14.40
2023-12-15T09:23:21.237Z,14.10
2023-12-15T09:25:55.053Z,12.70
2023-12-15T09:28:27.698Z,12.60
2023-12-15T09:31:00.442Z,10.90
2023-12-15T09:33:33.062Z,13.30
2023-12-15T09:36:06.393Z,12.70
2023-12-15T09:38:38.650Z,13.70
2023-12-15T09:41:11.480Z,13.70
2023-12-15T09:43:43.880Z,13.70
2023-12-15T09:46:16.418Z,13.80
2023-12-15T09:48:49.624Z,14.90
2023-12-15T09:51:25.827Z,13.30
2023-12-15T09:53:58.168Z,14.80
2023-12-15T09:56:30.785Z,13.80
2023-12-15T09:59:02.955Z,14.10
2023-12-15T10:01:35.348Z,14.10
2023-12-15T10:04:07.685Z,15.30
2023-12-15T10:06:41.350Z,17.00
2023-12-15T10:11:48.267Z,17.00
2023-12-15T10:14:21.180Z,16.30
2023-12-15T10:16:53.826Z,15.10
2023-12-15T10:19:28.578Z,16.60
2023-12-15T10:22:00.701Z,18.50
2023-12-15T10:24:35.647Z,18.30
2023-12-15T10:27:10.244Z,17.70
2023-12-15T10:29:42.964Z,17.90
2023-12-15T10:32:15.757Z,16.00
2023-12-15T10:34:48.066Z,15.40
2023-12-15T10:37:21.092Z,14.90
2023-12-15T10:39:53.246Z,14.20
2023-12-15T10:42:26.794Z,12.90
2023-12-15T10:45:00.384Z,13.60
2023-12-15T10:47:34.682Z,13.40
2023-12-15T10:50:09.139Z,11.90
2023-12-15T10:52:42.241Z,10.30
2023-12-15T10:55:16.622Z,10.50
2023-12-15T10:57:50.085Z,9.90
2023-12-15T11:00:22.793Z,10.70
2023-12-15T11:02:56.764Z,10.60
2023-12-15T11:05:35.837Z,11.10
2023-12-15T11:08:11.575Z,10.80
2023-12-15T11:10:43.663Z,9.60
2023-12-15T11:13:48.596Z,8.70
2023-12-15T11:16:24.870Z,9.40
2023-12-15T11:18:59.402Z,10.20
2023-12-15T11:21:32.391Z,10.90
2023-12-15T11:24:06.597Z,11.10
2023-12-15T11:26:40.083Z,12.10
2023-12-15T11:29:14.672Z,11.50
2023-12-15T11:31:47.281Z,10.60
2023-12-15T11:34:43.753Z,12.70
2023-12-15T11:37:16.041Z,11.70
2023-12-15T11:39:51.690Z,12.60
2023-12-15T11:42:24.484Z,11.30
2023-12-15T11:44:56.653Z,17.00
2023-12-15T11:47:28.897Z,17.50
2023-12-15T11:50:05.571Z,18.30
2023-12-15T11:52:41.676Z,15.90
2023-12-15T11:55:17.045Z,14.60
2023-12-15T11:57:49.275Z,15.40
2023-12-15T12:00:22.435Z,14.20
2023-12-15T12:02:55.026Z,14.40
2023-12-15T12:05:27.252Z,15.20
2023-12-15T12:08:00.384Z,14.00
2023-12-15T12:10:35.837Z,14.20
2023-12-15T12:13:12.548Z,15.00
2023-12-15T12:15:55.226Z,14.50
2023-12-15T12:18:28.525Z,14.70
2023-12-15T12:21:04.304Z,15.50
2023-12-15T12:23:43.380Z,14.70
2023-12-15T12:26:18.240Z,14.00
2023-12-15T12:28:52.662Z,13.10
2023-12-15T12:31:25.819Z,13.90
2023-12-15T12:33:58.390Z,12.70
2023-12-15T12:36:30.816Z,12.00
2023-12-15T12:39:04.324Z,11.80
2023-12-15T12:41:36.818Z,11.20
2023-12-15T12:44:09.964Z,11.90
2023-12-15T12:46:42.507Z,11.60
2023-12-15T12:49:15.431Z,13.40
2023-12-15T12:51:52.114Z,12.20
2023-12-15T12:54:24.047Z,14.20
2023-12-15T12:57:00.484Z,13.40
2023-12-15T12:59:33.253Z,12.90
2023-12-15T13:02:11.800Z,11.20
2023-12-15T13:04:51.445Z,10.70
2023-12-15T13:07:23.633Z,8.30
2023-12-15T13:09:55.630Z,11.00
2023-12-15T13:12:29.424Z,12.90
2023-12-15T13:15:01.374Z,13.10
2023-12-15T13:17:33.784Z,15.00
2023-12-15T13:20:06.481Z,12.90
2023-12-15T13:22:47.278Z,12.90
2023-12-15T13:25:20.974Z,11.90
2023-12-15T13:27:53.629Z,11.70
2023-12-15T13:30:28.423Z,11.70
2023-12-15T13:33:00.778Z,12.50
2023-12-15T13:35:35.687Z,11.40
2023-12-15T13:38:08.159Z,11.40
2023-12-15T13:40:40.316Z,14.50
2023-12-15T13:43:12.618Z,14.30
2023-12-15T13:45:50.656Z,13.80
2023-12-15T13:48:26.424Z,12.20
2023-12-15T13:50:58.841Z,13.10
2023-12-15T13:53:31.356Z,12.20
2023-12-15T13:56:03.750Z,12.60
2023-12-15T13:58:36.628Z,11.70
2023-12-15T14:01:08.916Z,12.50
2023-12-15T14:03:41.148Z,12.10
2023-12-15T14:06:13.804Z,11.30
2023-12-15T14:08:47.805Z,11.90
2023-12-15T14:11:20.030Z,12.70
2023-12-15T14:13:52.474Z,13.20
2023-12-15T14:16:37.696Z,12.90
2023-12-15T14:19:18.712Z,20.00
2023-12-15T14:21:52.455Z,20.80
2023-12-15T14:24:25.135Z,20.00
2023-12-15T14:26:58.548Z,16.70
2023-12-15T14:29:32.104Z,15.20
2023-12-15T14:32:05.359Z,14.90
2023-12-15T14:34:37.666Z,15.80
2023-12-15T14:37:09.819Z,17.40
2023-12-15T14:39:41.908Z,21.00
2023-12-15T14:42:16.764Z,21.70
2023-12-15T14:44:49.305Z,22.50
2023-12-15T14:47:24.253Z,20.50
2023-12-15T14:49:56.233Z,18.40
2023-12-15T14:52:29.968Z,17.10
2023-12-15T14:55:03.361Z,20.90
2023-12-15T14:57:37.336Z,23.80
2023-12-15T15:00:11.306Z,20.80
2023-12-15T15:02:44.253Z,21.30
2023-12-15T15:05:17.079Z,19.60
2023-12-15T15:07:49.136Z,18.20
2023-12-15T15:10:21.346Z,18.00
2023-12-15T15:12:53.660Z,16.80
2023-12-15T15:15:26.076Z,18.40
2023-12-15T15:17:58.306Z,20.50
2023-12-15T15:20:30.781Z,20.10
2023-12-15T15:23:02.932Z,18.30
2023-12-15T15:25:35.869Z,17.70
2023-12-15T15:28:09.768Z,17.50
2023-12-15T15:30:44.033Z,16.80
2023-12-15T15:33:16.449Z,17.20
2023-12-15T15:35:48.738Z,18.30
2023-12-15T15:38:20.828Z,17.90
2023-12-15T15:40:53.486Z,17.90
2023-12-15T15:43:26.014Z,16.70
2023-12-15T15:45:58.461Z,18.10
2023-12-15T15:48:32.079Z,16.00
2023-12-15T15:51:04.329Z,16.90
2023-12-15T15:53:36.688Z,18.70
2023-12-15T15:56:12.435Z,18.30
2023-12-15T15:58:44.624Z,18.50
2023-12-15T16:01:32.799Z,21.30
2023-12-15T16:04:13.216Z,19.60
2023-12-15T16:06:45.487Z,20.00
2023-12-15T16:09:18.296Z,18.80
2023-12-15T16:11:50.807Z,19.90
2023-12-15T16:14:22.811Z,20.20
2023-12-15T16:16:56.197Z,20.30
2023-12-15T16:19:28.532Z,21.00
2023-12-15T16:22:01.613Z,19.50
2023-12-15T16:24:33.757Z,23.00
2023-12-15T16:27:06.240Z,21.50
2023-12-15T16:29:38.494Z,22.60
2023-12-15T16:32:11.321Z,23.90
2023-12-15T16:34:44.906Z,24.20
2023-12-15T16:37:17.124Z,24.20
2023-12-15T16:39:50.543Z,22.90
2023-12-15T16:42:22.748Z,24.20
2023-12-15T16:44:54.996Z,27.10
2023-12-15T16:47:27.250Z,28.50
2023-12-15T16:49:59.490Z,29.10
2023-12-15T16:52:31.659Z,29.20
2023-12-15T16:55:05.065Z,28.00
2023-12-15T16:57:38.063Z,26.80
2023-12-15T17:00:12.918Z,28.70
2023-12-15T17:02:44.967Z,30.40
2023-12-15T17:05:17.115Z,33.00
2023-12-15T17:07:49.608Z,33.40
2023-12-15T17:10:21.891Z,36.30
2023-12-15T17:12:54.458Z,34.00
2023-12-15T17:15:26.601Z,32.40
2023-12-15T17:18:05.398Z,34.50
2023-12-15T17:20:40.726Z,34.00
2023-12-15T17:23:12.778Z,32.80
2023-12-15T17:25:46.404Z,33.40
2023-12-15T17:28:18.525Z,33.60
2023-12-15T17:30:50.591Z,34.40
2023-12-15T17:33:22.664Z,31.20
2023-12-15T17:35:54.707Z,35.30
2023-12-15T17:38:26.728Z,32.40
2023-12-15T17:40:59.194Z,36.60
2023-12-15T17:43:31.230Z,54.60
2023-12-15T17:46:03.454Z,45.60
2023-12-15T17:48:37.262Z,38.90
2023-12-15T17:51:09.976Z,46.30
2023-12-15T17:53:43.647Z,44.70
2023-12-15T17:58:46.874Z,39.30
2023-12-15T18:01:19.026Z,32.20
2023-12-15T18:03:51.521Z,33.60
2023-12-15T18:06:23.621Z,33.90
2023-12-15T18:08:55.786Z,33.30
2023-12-15T18:11:30.560Z,31.90
2023-12-15T18:14:03.303Z,32.10
2023-12-15T18:16:36.186Z,33.00
2023-12-15T18:19:08.426Z,32.20
2023-12-15T18:21:44.955Z,32.40
2023-12-15T18:24:17.420Z,32.90
2023-12-15T18:26:49.627Z,33.30
2023-12-15T18:29:26.441Z,32.50
2023-12-15T18:31:58.836Z,33.30
2023-12-15T18:34:31.986Z,33.30
2023-12-15T18:37:06.153Z,32.10
2023-12-15T18:39:39.625Z,43.60
2023-12-15T18:42:12.037Z,38.70
2023-12-15T18:44:47.314Z,36.70
2023-12-15T18:47:20.568Z,35.20
2023-12-15T18:49:55.155Z,36.30
2023-12-15T18:52:30.381Z,37.30
2023-12-15T18:55:06.738Z,37.30
2023-12-15T18:57:46.738Z,38.30
2023-12-15T19:00:24.759Z,37.10
2023-12-15T19:02:56.958Z,37.50
2023-12-15T19:05:29.684Z,38.80
2023-12-15T19:08:03.189Z,37.30
2023-12-15T19:10:35.204Z,40.70
2023-12-15T19:13:07.661Z,43.70
2023-12-15T19:15:40.008Z,41.00
2023-12-15T19:18:12.450Z,39.40
2023-12-15T19:20:51.164Z,38.00
2023-12-15T19:23:25.053Z,36.30
2023-12-15T19:25:59.539Z,38.90
2023-12-15T19:28:34.167Z,38.50
2023-12-15T19:31:06.915Z,40.60
2023-12-15T19:33:41.008Z,40.30
2023-12-15T19:36:14.839Z,43.00
2023-12-15T19:41:24.377Z,40.80
2023-12-15T19:43:56.887Z,41.80
2023-12-15T19:46:33.483Z,45.80
2023-12-15T19:49:05.855Z,44.70
2023-12-15T19:51:38.828Z,42.00
2023-12-15T19:54:19.689Z,43.00
2023-12-15T19:56:53.842Z,41.60
2023-12-15T19:59:27.409Z,42.80
2023-12-15T20:02:04.827Z,40.50
2023-12-15T20:04:38.000Z,42.80
2023-12-15T20:07:10.387Z,42.70
2023-12-15T20:09:43.433Z,40.50
2023-12-15T20:12:16.429Z,41.60
2023-12-15T20:14:48.730Z,30.70
2023-12-15T20:17:24.187Z,41.60
2023-12-15T20:19:57.407Z,43.00
2023-12-15T20:22:31.285Z,38.10
2023-12-15T20:25:08.104Z,41.00
2023-12-15T20:27:44.360Z,38.80
2023-12-15T20:30:18.565Z,39.70
2023-12-15T20:32:51.142Z,32.70
2023-12-15T20:35:23.873Z,37.00
2023-12-15T20:37:57.018Z,39.10
2023-12-15T20:40:29.914Z,38.50
2023-12-15T20:43:02.090Z,39.10
2023-12-15T20:45:34.217Z,37.60
2023-12-15T20:48:06.578Z,38.80
2023-12-15T20:50:39.700Z,36.90
2023-12-15T20:53:13.657Z,35.40
2023-12-15T20:55:46.296Z,37.80
2023-12-15T20:58:18.731Z,37.70
2023-12-15T21:00:51.191Z,34.40
2023-12-15T21:03:24.601Z,36.40
2023-12-15T21:05:56.736Z,34.30
2023-12-15T21:08:29.684Z,32.10
2023-12-15T21:11:01.733Z,33.50
2023-12-15T21:13:33.809Z,29.80
2023-12-15T21:16:07.698Z,31.00
2023-12-15T21:18:40.457Z,31.60
2023-12-15T21:21:12.612Z,32.50
2023-12-15T21:23:44.559Z,31.30
2023-12-15T21:26:17.443Z,31.00
2023-12-15T21:28:49.586Z,30.50
2023-12-15T21:31:22.052Z,30.90
2023-12-15T21:33:54.449Z,30.70
2023-12-15T21:36:26.708Z,30.20
2023-12-15T21:38:58.773Z,31.20
2023-12-15T21:41:41.676Z,31.40
2023-12-15T21:44:14.096Z,31.90
2023-12-15T21:46:47.166Z,29.30
2023-12-15T21:49:20.382Z,31.00
2023-12-15T21:51:52.843Z,30.90
2023-12-15T21:54:25.092Z,31.10
2023-12-15T21:56:57.214Z,31.20
2023-12-15T21:59:29.837Z,30.70
2023-12-15T22:02:02.078Z,31.10
2023-12-15T22:04:34.377Z,30.80
2023-12-15T22:07:07.927Z,31.10
2023-12-15T22:09:40.656Z,33.40
2023-12-15T22:12:16.547Z,25.40
2023-12-15T22:14:49.406Z,31.60
2023-12-15T22:17:21.481Z,32.40
2023-12-15T22:19:53.877Z,32.80
2023-12-15T22:22:26.116Z,31.50
2023-12-15T22:24:58.379Z,34.90
2023-12-15T22:27:30.395Z,35.00
2023-12-15T22:30:04.644Z,31.90
2023-12-15T22:32:36.811Z,34.90
2023-12-15T22:35:09.859Z,33.70
2023-12-15T22:37:42.197Z,33.70
2023-12-15T22:40:15.370Z,33.60
2023-12-15T22:42:47.917Z,33.50
2023-12-15T22:45:20.637Z,33.60
2023-12-15T22:47:52.890Z,33.50
2023-12-15T22:50:25.320Z,31.50
2023-12-15T22:52:57.385Z,33.20
2023-12-15T22:55:30.290Z,34.20
2023-12-15T22:58:02.376Z,35.20
2023-12-15T23:00:36.488Z,32.20
2023-12-15T23:03:09.347Z,36.50
2023-12-15T23:05:41.561Z,35.30
2023-12-15T23:08:13.586Z,34.10
2023-12-15T23:10:45.835Z,33.90
2023-12-15T23:13:17.811Z,32.70
2023-12-15T23:15:50.410Z,33.50
2023-12-15T23:18:22.547Z,35.90
2023-12-15T23:20:54.698Z,32.80
2023-12-15T23:23:26.778Z,35.90
2023-12-15T23:25:58.981Z,34.80
2023-12-15T23:28:31.087Z,34.60
2023-12-15T23:31:04.006Z,33.30
2023-12-15T23:33:36.826Z,27.50
2023-12-15T23:36:16.467Z,35.50
2023-12-15T23:38:48.490Z,34.10
2023-12-15T23:41:20.606Z,35.10
2023-12-15T23:43:52.632Z,34.00
2023-12-15T23:46:24.776Z,34.80
2023-12-15T23:48:57.413Z,34.00
2023-12-15T23:51:29.474Z,32.80
2023-12-15T23:54:02.120Z,34.20
2023-12-15T23:56:34.228Z,36.00
2023-12-15T23:59:09.341Z,36.20
